createdAt,value
2019-01-10T00:01:54.951Z,38.40
2019-01-10T00:04:24.710Z,33.23
2019-01-10T00:06:54.406Z,37.63
2019-01-10T00:09:24.131Z,36.30
2019-01-10T00:11:53.879Z,36.57
2019-01-10T00:14:23.651Z,37.23
2019-01-10T00:16:53.302Z,33.17
2019-01-10T00:19:22.977Z,34.30
2019-01-10T00:21:52.696Z,35.47
2019-01-10T00:24:24.006Z,35.50
2019-01-10T00:26:53.685Z,32.57
2019-01-10T00:29:23.451Z,35.70
2019-01-10T00:31:53.145Z,34.67
2019-01-10T00:34:22.831Z,33.67
2019-01-10T00:36:52.661Z,35.90
2019-01-10T00:39:22.300Z,34.67
2019-01-10T00:41:52.093Z,35.87
2019-01-10T00:44:21.724Z,34.90
2019-01-10T00:46:51.434Z,34.83
2019-01-10T00:49:21.147Z,35.07
2019-01-10T00:51:50.820Z,35.07
2019-01-10T00:54:20.536Z,36.47
2019-01-10T00:56:50.187Z,34.13
2019-01-10T00:59:19.861Z,36.03
2019-01-10T01:01:49.587Z,36.20
2019-01-10T01:04:19.264Z,37.80
2019-01-10T01:06:48.925Z,34.57
2019-01-10T01:09:18.611Z,33.90
2019-01-10T01:11:48.291Z,34.00
2019-01-10T01:14:18.003Z,35.50
2019-01-10T01:16:47.775Z,34.97
2019-01-10T01:19:30.493Z,34.00
2019-01-10T01:22:00.207Z,34.03
2019-01-10T01:24:29.932Z,35.50
2019-01-10T01:26:59.658Z,34.30
2019-01-10T01:29:29.369Z,34.57
2019-01-10T01:31:59.191Z,35.97
2019-01-10T01:34:28.958Z,35.53
2019-01-10T01:36:58.643Z,35.40
2019-01-10T01:39:28.371Z,35.67
2019-01-10T01:41:58.038Z,36.10
2019-01-10T01:44:27.757Z,36.97
2019-01-10T01:46:57.421Z,34.63
2019-01-10T01:49:27.140Z,36.93
2019-01-10T01:51:56.876Z,34.70
2019-01-10T01:54:26.574Z,33.70
2019-01-10T01:56:56.256Z,35.10
2019-01-10T01:59:25.941Z,34.73
2019-01-10T02:01:56.234Z,34.70
2019-01-10T02:04:25.955Z,33.73
2019-01-10T02:06:55.679Z,34.97
2019-01-10T02:09:25.359Z,33.90
2019-01-10T02:11:55.044Z,34.47
2019-01-10T02:14:24.789Z,34.03
2019-01-10T02:16:54.459Z,34.17
2019-01-10T02:19:24.177Z,35.97
2019-01-10T02:21:53.859Z,34.33
2019-01-10T02:24:23.810Z,34.87
2019-01-10T02:26:53.540Z,32.83
2019-01-10T02:29:23.211Z,34.63
2019-01-10T02:31:52.892Z,33.70
2019-01-10T02:34:22.750Z,34.20
2019-01-10T02:36:52.439Z,33.77
2019-01-10T02:39:22.468Z,35.13
2019-01-10T02:41:52.138Z,37.27
2019-01-10T02:44:21.873Z,36.33
2019-01-10T02:46:51.547Z,33.70
2019-01-10T02:49:21.206Z,32.13
2019-01-10T02:51:50.911Z,35.20
2019-01-10T02:54:22.694Z,34.33
2019-01-10T02:56:52.110Z,32.90
2019-01-10T02:59:21.774Z,33.17
2019-01-10T03:01:51.484Z,34.60
2019-01-10T03:04:21.313Z,33.80
2019-01-10T03:06:50.974Z,32.37
2019-01-10T03:09:23.130Z,33.87
2019-01-10T03:11:52.081Z,34.73
2019-01-10T03:14:21.893Z,33.37
2019-01-10T03:16:51.569Z,33.20
2019-01-10T03:19:21.244Z,32.50
2019-01-10T03:21:50.926Z,33.70
2019-01-10T03:24:20.659Z,33.33
2019-01-10T03:26:50.321Z,35.07
2019-01-10T03:29:20.007Z,34.40
2019-01-10T03:31:49.763Z,34.97
2019-01-10T03:34:19.525Z,34.00
2019-01-10T03:36:49.268Z,32.53
2019-01-10T03:39:18.986Z,33.67
2019-01-10T03:41:48.746Z,32.73
2019-01-10T03:44:18.512Z,35.67
2019-01-10T03:46:48.181Z,35.17
2019-01-10T03:49:19.016Z,33.97
2019-01-10T03:51:48.686Z,34.47
2019-01-10T03:54:18.472Z,35.53
2019-01-10T03:56:48.156Z,34.13
2019-01-10T03:59:17.836Z,35.10
2019-01-10T04:01:47.521Z,35.07
2019-01-10T04:04:17.197Z,33.87
2019-01-10T04:06:47.391Z,34.47
2019-01-10T04:09:17.061Z,33.60
2019-01-10T04:11:46.776Z,34.43
2019-01-10T04:14:16.516Z,34.80
2019-01-10T04:16:46.186Z,35.17
2019-01-10T04:19:15.884Z,36.33
2019-01-10T04:21:45.575Z,36.83
2019-01-10T04:24:15.247Z,34.73
2019-01-10T04:26:45.008Z,35.50
2019-01-10T04:29:14.791Z,34.07
2019-01-10T04:31:44.463Z,35.63
2019-01-10T04:34:14.131Z,35.87
2019-01-10T04:36:43.867Z,33.30
2019-01-10T04:39:13.532Z,33.10
2019-01-10T04:41:43.261Z,34.57
2019-01-10T04:44:12.997Z,31.30
2019-01-10T04:46:42.666Z,33.27
2019-01-10T04:49:12.345Z,31.10
2019-01-10T04:51:42.035Z,30.57
2019-01-10T04:54:11.725Z,27.23
2019-01-10T04:56:41.434Z,28.80
2019-01-10T04:59:12.194Z,30.57
2019-01-10T05:01:42.084Z,30.17
2019-01-10T05:04:11.771Z,29.17
2019-01-10T05:06:41.493Z,47.80
2019-01-10T05:09:11.296Z,30.97
2019-01-10T05:11:41.032Z,28.43
2019-01-10T05:14:16.460Z,28.43
2019-01-10T05:16:42.140Z,28.60
2019-01-10T05:19:12.090Z,28.80
2019-01-10T05:21:41.831Z,27.53
2019-01-10T05:24:11.561Z,29.60
2019-01-10T05:26:41.236Z,28.60
2019-01-10T05:29:10.985Z,29.10
2019-01-10T05:31:40.698Z,30.40
2019-01-10T05:34:10.370Z,31.77
2019-01-10T05:36:40.078Z,31.30
2019-01-10T05:39:09.748Z,27.60
2019-01-10T05:41:39.463Z,28.73
2019-01-10T05:44:09.191Z,28.67
2019-01-10T05:46:48.147Z,28.07
2019-01-10T05:49:10.341Z,27.87
2019-01-10T05:51:40.039Z,28.03
2019-01-10T05:54:09.689Z,29.73
2019-01-10T05:56:39.466Z,29.63
2019-01-10T05:59:09.166Z,28.93
2019-01-10T06:01:39.203Z,27.83
2019-01-10T06:04:10.026Z,29.93
2019-01-10T06:06:39.831Z,29.53
2019-01-10T06:09:09.662Z,29.10
2019-01-10T06:11:39.391Z,29.30
2019-01-10T06:14:09.179Z,28.33
2019-01-10T06:16:39.000Z,30.07
2019-01-10T06:19:08.689Z,28.43
2019-01-10T06:21:38.400Z,27.43
2019-01-10T06:24:08.309Z,26.97
2019-01-10T06:26:37.981Z,28.23
2019-01-10T06:29:07.715Z,28.30
2019-01-10T06:31:37.385Z,26.10
2019-01-10T06:34:07.082Z,27.87
2019-01-10T06:36:36.781Z,27.90
2019-01-10T06:39:07.151Z,27.47
2019-01-10T06:41:36.826Z,29.13
2019-01-10T06:44:06.562Z,30.80
2019-01-10T06:46:36.228Z,29.83
2019-01-10T06:49:06.046Z,29.97
2019-01-10T06:51:36.302Z,28.80
2019-01-10T06:54:06.156Z,31.13
2019-01-10T06:56:36.008Z,28.57
2019-01-10T06:59:05.714Z,28.97
2019-01-10T07:01:35.575Z,30.07
2019-01-10T07:04:05.241Z,30.20
2019-01-10T07:06:34.943Z,30.50
2019-01-10T07:09:07.280Z,30.90
2019-01-10T07:11:36.974Z,30.00
2019-01-10T07:14:06.683Z,37.03
2019-01-10T07:16:36.361Z,37.83
2019-01-10T07:19:06.132Z,37.40
2019-01-10T07:21:39.576Z,38.80
2019-01-10T07:24:09.236Z,38.77
2019-01-10T07:26:38.942Z,36.63
2019-01-10T07:29:09.887Z,34.23
2019-01-10T07:31:39.591Z,29.83
2019-01-10T07:34:09.266Z,32.93
2019-01-10T07:36:38.949Z,34.53
2019-01-10T07:39:08.636Z,28.53
2019-01-10T07:41:40.517Z,25.93
2019-01-10T07:44:10.302Z,30.00
2019-01-10T07:46:44.091Z,28.10
2019-01-10T07:49:13.794Z,29.30
2019-01-10T07:51:45.117Z,26.03
2019-01-10T07:54:14.862Z,25.47
2019-01-10T07:56:44.588Z,27.67
2019-01-10T07:59:14.351Z,29.50
2019-01-10T08:01:44.038Z,30.93
2019-01-10T08:04:13.749Z,26.33
2019-01-10T08:06:43.571Z,26.90
2019-01-10T08:09:13.301Z,25.53
2019-01-10T08:11:43.186Z,25.43
2019-01-10T08:14:12.845Z,20.10
2019-01-10T08:16:42.551Z,24.20
2019-01-10T08:19:12.260Z,25.97
2019-01-10T08:21:42.046Z,25.37
2019-01-10T08:24:11.724Z,25.83
2019-01-10T08:26:41.398Z,23.73
2019-01-10T08:29:11.192Z,25.13
2019-01-10T08:31:41.015Z,24.80
2019-01-10T08:34:10.830Z,26.10
2019-01-10T08:36:40.653Z,24.10
2019-01-10T08:39:10.298Z,26.03
2019-01-10T08:41:40.011Z,25.80
2019-01-10T08:44:09.711Z,25.07
2019-01-10T08:46:39.388Z,27.03
2019-01-10T08:49:09.093Z,20.73
2019-01-10T08:51:38.756Z,25.27
2019-01-10T08:54:08.472Z,25.53
2019-01-10T08:56:38.222Z,23.47
2019-01-10T08:59:07.953Z,22.10
2019-01-10T09:01:37.743Z,23.60
2019-01-10T09:04:07.414Z,24.97
2019-01-10T09:06:37.132Z,24.73
2019-01-10T09:09:08.450Z,22.77
2019-01-10T09:11:38.172Z,24.83
2019-01-10T09:14:08.203Z,24.57
2019-01-10T09:16:37.941Z,24.93
2019-01-10T09:19:07.641Z,23.40
2019-01-10T09:21:37.358Z,24.30
2019-01-10T09:24:07.028Z,24.70
2019-01-10T09:26:37.633Z,24.87
2019-01-10T09:29:07.724Z,26.67
2019-01-10T09:31:37.466Z,26.10
2019-01-10T09:34:07.224Z,26.57
2019-01-10T09:36:36.949Z,28.10
2019-01-10T09:39:07.503Z,25.93
2019-01-10T09:41:37.212Z,27.17
2019-01-10T09:44:06.882Z,25.80
2019-01-10T09:46:36.576Z,26.30
2019-01-10T09:49:06.318Z,24.73
2019-01-10T09:51:36.046Z,26.77
2019-01-10T09:54:05.772Z,26.67
2019-01-10T09:56:35.435Z,26.80
2019-01-10T09:59:05.126Z,25.63
2019-01-10T10:01:34.872Z,28.13
2019-01-10T10:04:04.564Z,24.60
2019-01-10T10:06:34.226Z,26.67
2019-01-10T10:09:05.834Z,28.63
2019-01-10T10:11:35.543Z,25.97
2019-01-10T10:14:05.285Z,26.27
2019-01-10T10:16:35.074Z,26.20
2019-01-10T10:19:04.928Z,26.90
2019-01-10T10:21:34.695Z,24.77
2019-01-10T10:24:04.453Z,24.13
2019-01-10T10:26:34.109Z,22.87
2019-01-10T10:29:03.857Z,26.53
2019-01-10T10:31:33.506Z,26.27
2019-01-10T10:34:03.177Z,25.30
2019-01-10T10:36:32.885Z,25.07
2019-01-10T10:39:02.636Z,24.80
2019-01-10T10:41:32.554Z,24.87
2019-01-10T10:44:02.385Z,25.70
2019-01-10T10:46:32.063Z,23.90
2019-01-10T10:49:01.777Z,25.53
2019-01-10T10:51:31.521Z,22.63
2019-01-10T10:54:01.352Z,24.60
2019-01-10T10:56:31.260Z,22.23
2019-01-10T10:59:01.063Z,22.73
2019-01-10T11:01:30.747Z,18.67
2019-01-10T11:04:00.438Z,19.73
2019-01-10T11:06:30.111Z,24.03
2019-01-10T11:09:08.798Z,25.27
2019-01-10T11:11:32.335Z,22.17
2019-01-10T11:14:02.019Z,22.50
2019-01-10T11:16:31.792Z,25.10
2019-01-10T11:19:01.612Z,24.00
2019-01-10T11:21:31.350Z,24.90
2019-01-10T11:24:01.075Z,25.60
2019-01-10T11:26:30.834Z,23.37
2019-01-10T11:29:00.607Z,24.57
2019-01-10T11:31:30.361Z,24.80
2019-01-10T11:34:00.043Z,23.80
2019-01-10T11:36:29.773Z,25.70
2019-01-10T11:38:59.586Z,24.63
2019-01-10T11:41:29.294Z,26.80
2019-01-10T11:43:59.540Z,25.83
2019-01-10T11:46:29.222Z,26.10
2019-01-10T11:48:58.911Z,25.63
2019-01-10T11:51:28.612Z,27.27
2019-01-10T11:53:58.346Z,26.80
2019-01-10T11:56:28.170Z,25.90
2019-01-10T11:58:57.827Z,27.27
2019-01-10T12:01:27.562Z,27.63
2019-01-10T12:03:57.282Z,27.53
2019-01-10T12:06:26.936Z,26.90
2019-01-10T12:08:56.649Z,27.57
2019-01-10T12:11:26.419Z,28.00
2019-01-10T12:13:56.232Z,26.80
2019-01-10T12:16:28.597Z,26.93
2019-01-10T12:18:59.320Z,27.03
2019-01-10T12:21:28.711Z,28.13
2019-01-10T12:23:58.457Z,28.17
2019-01-10T12:26:28.187Z,27.60
2019-01-10T12:28:57.882Z,27.23
2019-01-10T12:31:27.553Z,26.67
2019-01-10T12:33:57.233Z,26.77
2019-01-10T12:36:27.004Z,26.20
2019-01-10T12:38:56.677Z,25.80
2019-01-10T12:41:26.532Z,25.40
2019-01-10T12:43:56.270Z,26.47
2019-01-10T12:46:25.989Z,25.83
2019-01-10T12:48:55.778Z,25.27
2019-01-10T12:51:25.486Z,25.73
2019-01-10T12:53:55.167Z,26.27
2019-01-10T12:56:24.821Z,26.77
2019-01-10T12:58:54.527Z,28.10
2019-01-10T13:01:24.252Z,26.93
2019-01-10T13:03:53.991Z,27.03
2019-01-10T13:06:23.656Z,26.37
2019-01-10T13:08:53.336Z,27.30
2019-01-10T13:11:22.996Z,26.07
2019-01-10T13:13:52.696Z,27.77
2019-01-10T13:16:22.462Z,27.10
2019-01-10T13:18:52.145Z,26.83
2019-01-10T13:21:22.044Z,26.63
2019-01-10T13:23:52.203Z,27.53
2019-01-10T13:26:21.889Z,26.17
2019-01-10T13:28:51.598Z,24.77
2019-01-10T13:31:21.388Z,24.87
2019-01-10T13:33:51.103Z,25.63
2019-01-10T13:36:20.964Z,25.97
2019-01-10T13:38:50.623Z,28.00
2019-01-10T13:41:20.319Z,27.17
2019-01-10T13:43:49.981Z,26.90
2019-01-10T13:46:20.365Z,28.70
2019-01-10T13:48:51.651Z,27.63
2019-01-10T13:51:21.507Z,26.87
2019-01-10T13:53:51.321Z,29.20
2019-01-10T13:56:21.049Z,27.87
2019-01-10T13:58:50.791Z,25.40
2019-01-10T14:01:20.507Z,28.80
2019-01-10T14:03:50.323Z,27.63
2019-01-10T14:06:19.969Z,26.93
2019-01-10T14:08:49.743Z,27.30
2019-01-10T14:11:19.668Z,27.33
2019-01-10T14:13:49.323Z,26.83
2019-01-10T14:16:19.003Z,27.47
2019-01-10T14:18:48.745Z,26.90
2019-01-10T14:21:18.511Z,29.33
2019-01-10T14:23:48.167Z,29.40
2019-01-10T14:26:17.913Z,29.90
2019-01-10T14:28:47.639Z,33.87
2019-01-10T14:31:17.357Z,24.40
2019-01-10T14:33:47.042Z,27.67
2019-01-10T14:36:16.825Z,24.77
2019-01-10T14:38:46.524Z,27.43
2019-01-10T14:41:16.391Z,27.23
2019-01-10T14:43:46.199Z,28.77
2019-01-10T14:46:15.945Z,29.20
2019-01-10T14:48:45.681Z,28.73
2019-01-10T14:51:15.444Z,29.27
2019-01-10T14:53:46.505Z,29.63
2019-01-10T14:56:16.484Z,25.60
2019-01-10T14:58:46.168Z,28.43
2019-01-10T15:01:15.862Z,28.03
2019-01-10T15:03:45.551Z,30.77
2019-01-10T15:06:15.279Z,29.33
2019-01-10T15:08:45.061Z,27.30
2019-01-10T15:11:14.845Z,26.83
2019-01-10T15:13:44.856Z,28.17
2019-01-10T15:16:14.562Z,28.67
2019-01-10T15:18:44.277Z,29.70
2019-01-10T15:21:15.108Z,27.87
2019-01-10T15:23:44.827Z,27.93
2019-01-10T15:26:14.572Z,28.87
2019-01-10T15:28:45.290Z,28.80
2019-01-10T15:31:15.111Z,26.37
2019-01-10T15:33:44.830Z,27.50
2019-01-10T15:36:14.641Z,25.83
2019-01-10T15:38:44.309Z,29.00
2019-01-10T15:41:13.985Z,26.00
2019-01-10T15:43:43.667Z,27.30
2019-01-10T15:46:13.451Z,25.03
2019-01-10T15:48:43.186Z,28.07
2019-01-10T15:51:12.869Z,28.17
2019-01-10T15:53:42.674Z,27.13
2019-01-10T15:56:12.369Z,22.03
2019-01-10T15:58:42.108Z,30.57
2019-01-10T16:01:11.823Z,27.97
2019-01-10T16:03:41.553Z,29.40
2019-01-10T16:06:11.249Z,29.67
2019-01-10T16:08:41.030Z,30.27
2019-01-10T16:11:10.768Z,31.77
2019-01-10T16:13:40.555Z,31.00
2019-01-10T16:16:10.294Z,17.80
2019-01-10T16:18:39.985Z,20.17
2019-01-10T16:21:09.673Z,27.33
2019-01-10T16:23:39.483Z,26.77
2019-01-10T16:26:09.294Z,26.77
2019-01-10T16:28:39.099Z,28.23
2019-01-10T16:31:08.853Z,29.20
2019-01-10T16:33:38.579Z,29.43
2019-01-10T16:36:08.344Z,28.20
2019-01-10T16:38:39.275Z,30.63
2019-01-10T16:41:09.053Z,28.73
2019-01-10T16:43:38.801Z,27.33
2019-01-10T16:46:08.542Z,27.20
2019-01-10T16:48:38.290Z,25.07
2019-01-10T16:51:08.053Z,16.20
2019-01-10T16:53:37.842Z,18.33
2019-01-10T16:56:07.523Z,23.87
2019-01-10T16:58:37.230Z,23.27
2019-01-10T17:01:06.994Z,26.03
2019-01-10T17:03:36.763Z,19.77
2019-01-10T17:06:06.464Z,20.33
2019-01-10T17:08:36.179Z,28.47
2019-01-10T17:11:06.114Z,28.23
2019-01-10T17:13:35.948Z,23.97
2019-01-10T17:16:05.672Z,25.13
2019-01-10T17:18:35.411Z,27.07
2019-01-10T17:21:05.103Z,27.50
2019-01-10T17:23:34.803Z,17.33
2019-01-10T17:26:04.553Z,23.00
2019-01-10T17:28:34.292Z,21.57
2019-01-10T17:31:05.472Z,28.63
2019-01-10T17:33:35.172Z,29.43
2019-01-10T17:36:04.924Z,27.60
2019-01-10T17:38:36.272Z,25.63
2019-01-10T17:41:05.962Z,16.90
2019-01-10T17:43:35.692Z,19.77
2019-01-10T17:46:05.457Z,25.67
2019-01-10T17:48:36.257Z,21.50
2019-01-10T17:51:06.283Z,27.00
2019-01-10T17:53:35.985Z,27.37
2019-01-10T17:56:05.737Z,26.00
2019-01-10T17:58:35.415Z,26.73
2019-01-10T18:01:05.113Z,27.40
2019-01-10T18:03:40.057Z,24.97
2019-01-10T18:06:06.410Z,24.73
2019-01-10T18:08:36.244Z,13.03
2019-01-10T18:11:05.934Z,24.47
2019-01-10T18:13:35.645Z,28.13
2019-01-10T18:16:05.423Z,24.90
2019-01-10T18:18:35.185Z,21.60
2019-01-10T18:21:04.943Z,25.90
2019-01-10T18:23:37.694Z,25.33
2019-01-10T18:26:07.404Z,19.87
2019-01-10T18:28:37.124Z,30.70
2019-01-10T18:31:06.814Z,26.70
2019-01-10T18:33:36.532Z,26.67
2019-01-10T18:36:06.218Z,25.33
2019-01-10T18:38:35.981Z,24.60
2019-01-10T18:41:05.803Z,25.10
2019-01-10T18:43:35.554Z,24.63
2019-01-10T18:46:05.333Z,26.30
2019-01-10T18:48:39.707Z,16.87
2019-01-10T18:51:06.583Z,24.00
2019-01-10T18:53:36.254Z,21.63
2019-01-10T18:56:05.927Z,22.83
2019-01-10T18:58:35.641Z,23.47
2019-01-10T19:01:07.069Z,26.67
2019-01-10T19:03:36.929Z,28.97
2019-01-10T19:06:06.625Z,30.60
2019-01-10T19:08:36.327Z,24.33
2019-01-10T19:11:06.080Z,27.90
2019-01-10T19:13:36.004Z,24.73
2019-01-10T19:16:05.734Z,29.07
2019-01-10T19:18:35.450Z,25.33
2019-01-10T19:21:05.211Z,24.30
2019-01-10T19:23:34.964Z,25.87
2019-01-10T19:26:06.380Z,28.37
2019-01-10T19:28:37.194Z,19.77
2019-01-10T19:31:06.889Z,22.37
2019-01-10T19:33:36.624Z,22.90
2019-01-10T19:36:06.313Z,12.57
2019-01-10T19:38:36.023Z,25.73
2019-01-10T19:41:05.733Z,26.60
2019-01-10T19:43:35.521Z,24.10
2019-01-10T19:46:05.220Z,25.13
2019-01-10T19:48:34.940Z,25.67
2019-01-10T19:51:04.695Z,25.33
2019-01-10T19:53:34.374Z,25.30
2019-01-10T19:56:04.162Z,29.07
2019-01-10T19:58:34.382Z,30.57
2019-01-10T20:01:04.044Z,25.53
2019-01-10T20:03:33.711Z,23.87
2019-01-10T20:06:03.481Z,24.90
2019-01-10T20:08:33.251Z,19.07
2019-01-10T20:11:03.111Z,20.90
2019-01-10T20:13:32.843Z,19.67
2019-01-10T20:16:04.161Z,24.30
2019-01-10T20:18:34.043Z,23.73
2019-01-10T20:21:03.931Z,23.07
2019-01-10T20:23:34.061Z,13.50
2019-01-10T20:26:05.191Z,21.03
2019-01-10T20:28:34.951Z,23.90
2019-01-10T20:31:05.399Z,24.90
2019-01-10T20:33:35.081Z,23.97
2019-01-10T20:36:05.962Z,23.83
2019-01-10T20:38:36.622Z,23.80
2019-01-10T20:41:06.362Z,23.73
2019-01-10T20:43:36.061Z,24.63
2019-01-10T20:46:05.801Z,24.10
2019-01-10T20:48:35.521Z,26.33
2019-01-10T20:51:05.291Z,26.17
2019-01-10T20:53:35.122Z,28.10
2019-01-10T20:56:04.945Z,27.53
2019-01-10T20:58:34.646Z,19.57
2019-01-10T21:01:04.604Z,28.33
2019-01-10T21:03:34.412Z,27.40
2019-01-10T21:06:04.322Z,24.77
2019-01-10T21:08:34.114Z,26.43
2019-01-10T21:11:04.971Z,24.20
2019-01-10T21:13:34.722Z,25.07
2019-01-10T21:16:04.571Z,24.47
2019-01-10T21:18:34.374Z,23.57
2019-01-10T21:21:04.763Z,22.33
2019-01-10T21:23:35.513Z,25.13
2019-01-10T21:26:05.225Z,22.60
2019-01-10T21:28:34.942Z,24.57
2019-01-10T21:31:04.751Z,24.03
2019-01-10T21:33:34.561Z,7.73
2019-01-10T21:36:04.332Z,23.63
2019-01-10T21:38:34.062Z,23.70
2019-01-10T21:41:03.845Z,25.43
2019-01-10T21:43:33.668Z,24.33
2019-01-10T21:46:03.471Z,23.40
2019-01-10T21:48:35.108Z,24.13
2019-01-10T21:51:04.723Z,25.63
2019-01-10T21:53:34.504Z,26.00
2019-01-10T21:56:04.316Z,24.70
2019-01-10T21:58:34.087Z,26.50
2019-01-10T22:01:04.055Z,27.90
2019-01-10T22:03:33.746Z,26.27
2019-01-10T22:06:03.612Z,25.33
2019-01-10T22:08:33.261Z,26.87
2019-01-10T22:11:03.133Z,20.87
2019-01-10T22:13:32.934Z,25.57
2019-01-10T22:16:02.747Z,26.77
2019-01-10T22:18:32.673Z,25.90
2019-01-10T22:21:02.485Z,27.53
2019-01-10T22:23:33.216Z,25.30
2019-01-10T22:26:03.013Z,25.73
2019-01-10T22:28:32.734Z,24.80
2019-01-10T22:31:02.547Z,27.07
2019-01-10T22:33:32.363Z,26.90
2019-01-10T22:36:02.340Z,25.97
2019-01-10T22:38:32.562Z,25.77
2019-01-10T22:41:02.314Z,25.27
2019-01-10T22:43:32.038Z,23.83
2019-01-10T22:46:01.836Z,27.20
2019-01-10T22:48:31.608Z,26.40
2019-01-10T22:51:01.343Z,26.27
2019-01-10T22:53:31.063Z,26.67
2019-01-10T22:56:00.936Z,27.73
2019-01-10T22:58:30.684Z,27.10
2019-01-10T23:01:02.654Z,27.90
2019-01-10T23:03:35.333Z,27.07
2019-01-10T23:06:05.119Z,27.40
2019-01-10T23:08:39.756Z,26.23
2019-01-10T23:11:13.748Z,25.87
2019-01-10T23:13:45.658Z,27.20
2019-01-10T23:16:18.333Z,25.73
2019-01-10T23:18:54.111Z,25.60
2019-01-10T23:21:19.574Z,25.57
2019-01-10T23:23:49.329Z,25.70
2019-01-10T23:26:19.090Z,27.17
2019-01-10T23:28:48.910Z,26.07
2019-01-10T23:31:20.858Z,25.73
2019-01-10T23:33:50.676Z,26.33
2019-01-10T23:36:20.657Z,26.87
2019-01-10T23:38:55.330Z,24.83
2019-01-10T23:41:25.126Z,27.03
2019-01-10T23:43:54.875Z,26.07
2019-01-10T23:46:24.586Z,24.83
2019-01-10T23:49:00.486Z,23.83
2019-01-10T23:51:25.843Z,23.03
2019-01-10T23:53:55.633Z,26.37
2019-01-10T23:56:25.544Z,25.53
2019-01-10T23:58:55.204Z,27.83
